sensor_id;sensor_type;location;lat;lon;timestamp;pressure;altitude;pressure_sealevel;temperature;humidity
75938;BME280;64615;32.062;34.834;2023-07-24T00:02:05;100023.69;;;28.04;62.83
75938;BME280;64615;32.062;34.834;2023-07-24T00:04:33;100024.50;;;28.04;62.68
75938;BME280;64615;32.062;34.834;2023-07-24T00:07:00;100030.78;;;28.05;62.98
75938;BME280;64615;32.062;34.834;2023-07-24T00:09:25;100031.59;;;28.05;62.61
75938;BME280;64615;32.062;34.834;2023-07-24T00:11:51;100031.06;;;28.03;62.94
75938;BME280;64615;32.062;34.834;2023-07-24T00:14:17;100041.22;;;28.03;62.62
75938;BME280;64615;32.062;34.834;2023-07-24T00:16:43;100038.47;;;28.03;63.16
75938;BME280;64615;32.062;34.834;2023-07-24T00:19:08;100033.00;;;28.03;63.13
75938;BME280;64615;32.062;34.834;2023-07-24T00:21:34;100041.22;;;28.03;63.30
75938;BME280;64615;32.062;34.834;2023-07-24T00:23:59;100045.06;;;28.02;63.38
75938;BME280;64615;32.062;34.834;2023-07-24T00:26:25;100045.06;;;28.02;63.13
75938;BME280;64615;32.062;34.834;2023-07-24T00:28:51;100042.84;;;28.04;62.88
75938;BME280;64615;32.062;34.834;2023-07-24T00:31:16;100038.19;;;28.04;63.00
75938;BME280;64615;32.062;34.834;2023-07-24T00:33:42;100032.69;;;28.04;63.97
75938;BME280;64615;32.062;34.834;2023-07-24T00:36:08;100031.06;;;28.03;63.45
75938;BME280;64615;32.062;34.834;2023-07-24T00:38:33;100040.41;;;28.02;63.17
75938;BME280;64615;32.062;34.834;2023-07-24T00:40:59;100043.13;;;28.02;63.54
75938;BME280;64615;32.062;34.834;2023-07-24T00:43:25;100045.06;;;28.02;63.55
75938;BME280;64615;32.062;34.834;2023-07-24T00:45:50;100040.69;;;28.01;63.52
75938;BME280;64615;32.062;34.834;2023-07-24T00:48:16;100045.38;;;28.00;63.92
75938;BME280;64615;32.062;34.834;2023-07-24T00:50:43;100047.00;;;28.01;63.85
75938;BME280;64615;32.062;34.834;2023-07-24T00:53:11;100043.44;;;28.01;63.05
75938;BME280;64615;32.062;34.834;2023-07-24T00:55:38;100037.16;;;28.00;63.54
75938;BME280;64615;32.062;34.834;2023-07-24T00:58:05;100032.50;;;28.01;64.03
75938;BME280;64615;32.062;34.834;2023-07-24T01:00:31;100034.41;;;28.00;63.63
75938;BME280;64615;32.062;34.834;2023-07-24T01:02:59;100041.03;;;27.99;63.58
75938;BME280;64615;32.062;34.834;2023-07-24T01:05:25;100048.09;;;28.00;63.58
75938;BME280;64615;32.062;34.834;2023-07-24T01:07:54;100040.22;;;27.99;64.33
75938;BME280;64615;32.062;34.834;2023-07-24T01:10:20;100043.78;;;27.99;64.06
75938;BME280;64615;32.062;34.834;2023-07-24T01:12:54;100042.63;;;28.00;64.07
75938;BME280;64615;32.062;34.834;2023-07-24T01:15:32;100037.50;;;27.99;64.08
75938;BME280;64615;32.062;34.834;2023-07-24T01:18:13;100035.88;;;27.98;64.24
75938;BME280;64615;32.062;34.834;2023-07-24T01:20:48;100039.41;;;27.98;64.20
75938;BME280;64615;32.062;34.834;2023-07-24T01:25:58;100041.03;;;27.99;63.87
75938;BME280;64615;32.062;34.834;2023-07-24T01:28:26;100039.09;;;28.00;63.77
75938;BME280;64615;32.062;34.834;2023-07-24T01:30:52;100046.69;;;28.03;64.11
75938;BME280;64615;32.062;34.834;2023-07-24T01:33:18;100049.13;;;28.04;64.20
75938;BME280;64615;32.062;34.834;2023-07-24T01:35:44;100043.66;;;28.04;64.34
75938;BME280;64615;32.062;34.834;2023-07-24T01:38:13;100044.94;;;28.07;64.39
75938;BME280;64615;32.062;34.834;2023-07-24T01:40:40;100037.84;;;28.06;64.36
75938;BME280;64615;32.062;34.834;2023-07-24T01:43:06;100046.84;;;28.06;64.36
75938;BME280;64615;32.062;34.834;2023-07-24T01:45:32;100037.84;;;28.06;64.39
75938;BME280;64615;32.062;34.834;2023-07-24T01:47:59;100035.09;;;28.06;64.14
75938;BME280;64615;32.062;34.834;2023-07-24T01:50:25;100036.25;;;28.05;64.23
75938;BME280;64615;32.062;34.834;2023-07-24T01:52:51;100033.19;;;28.06;64.31
75938;BME280;64615;32.062;34.834;2023-07-24T01:55:16;100034.31;;;28.05;64.63
75938;BME280;64615;32.062;34.834;2023-07-24T01:57:42;100045.28;;;28.05;64.53
75938;BME280;64615;32.062;34.834;2023-07-24T02:00:08;100035.91;;;28.06;64.56
75938;BME280;64615;32.062;34.834;2023-07-24T02:02:34;100037.53;;;28.07;64.36
75938;BME280;64615;32.062;34.834;2023-07-24T02:04:59;100041.09;;;28.08;64.46
75938;BME280;64615;32.062;34.834;2023-07-24T02:07:25;100046.84;;;28.06;64.47
75938;BME280;64615;32.062;34.834;2023-07-24T02:09:51;100039.47;;;28.07;64.39
75938;BME280;64615;32.062;34.834;2023-07-24T02:12:16;100036.72;;;28.07;64.22
75938;BME280;64615;32.062;34.834;2023-07-24T02:14:42;100033.19;;;28.06;64.47
75938;BME280;64615;32.062;34.834;2023-07-24T02:17:07;100026.59;;;28.07;64.46
75938;BME280;64615;32.062;34.834;2023-07-24T02:19:33;100028.53;;;28.07;64.43
75938;BME280;64615;32.062;34.834;2023-07-24T02:21:58;100026.59;;;28.07;64.47
75938;BME280;64615;32.062;34.834;2023-07-24T02:24:24;100023.69;;;28.04;63.88
75938;BME280;64615;32.062;34.834;2023-07-24T02:26:50;100026.41;;;28.04;63.79
75938;BME280;64615;32.062;34.834;2023-07-24T02:29:15;100023.97;;;28.02;64.32
75938;BME280;64615;32.062;34.834;2023-07-24T02:31:41;100030.91;;;28.00;64.18
75938;BME280;64615;32.062;34.834;2023-07-24T02:34:07;100032.50;;;28.01;64.39
75938;BME280;64615;32.062;34.834;2023-07-24T02:36:33;100031.06;;;28.03;64.75
75938;BME280;64615;32.062;34.834;2023-07-24T02:38:59;100034.81;;;28.07;64.43
75938;BME280;64615;32.062;34.834;2023-07-24T02:41:24;100039.66;;;28.10;64.30
75938;BME280;64615;32.062;34.834;2023-07-24T02:43:50;100031.75;;;28.09;64.46
75938;BME280;64615;32.062;34.834;2023-07-24T02:46:15;100029.03;;;28.09;64.46
75938;BME280;64615;32.062;34.834;2023-07-24T02:48:41;100029.31;;;28.07;64.47
75938;BME280;64615;32.062;34.834;2023-07-24T02:51:07;100032.69;;;28.04;64.15
75938;BME280;64615;32.062;34.834;2023-07-24T02:53:32;100031.06;;;28.03;63.68
75938;BME280;64615;32.062;34.834;2023-07-24T02:55:58;100038.47;;;28.03;64.50
75938;BME280;64615;32.062;34.834;2023-07-24T02:58:25;100031.06;;;28.03;64.17
75938;BME280;64615;32.062;34.834;2023-07-24T03:00:51;100037.38;;;28.04;64.46
75938;BME280;64615;32.062;34.834;2023-07-24T03:03:17;100034.63;;;28.04;64.56
75938;BME280;64615;32.062;34.834;2023-07-24T03:05:42;100043.94;;;28.03;64.44
75938;BME280;64615;32.062;34.834;2023-07-24T03:08:08;100036.03;;;28.01;64.21
75938;BME280;64615;32.062;34.834;2023-07-24T03:10:34;100032.50;;;28.01;63.71
75938;BME280;64615;32.062;34.834;2023-07-24T03:12:59;100033.63;;;28.00;64.17
75938;BME280;64615;32.062;34.834;2023-07-24T03:15:25;100032.00;;;27.99;64.44
75938;BME280;64615;32.062;34.834;2023-07-24T03:17:50;100035.06;;;27.97;64.56
75938;BME280;64615;32.062;34.834;2023-07-24T03:20:18;100042.63;;;28.00;64.64
75938;BME280;64615;32.062;34.834;2023-07-24T03:22:44;100046.16;;;28.01;64.20
75938;BME280;64615;32.062;34.834;2023-07-24T03:25:10;100046.69;;;28.03;64.86
75938;BME280;64615;32.062;34.834;2023-07-24T03:27:36;100049.13;;;28.04;65.12
75938;BME280;64615;32.062;34.834;2023-07-24T03:30:02;100051.53;;;28.06;65.13
75938;BME280;64615;32.062;34.834;2023-07-24T03:32:28;100054.59;;;28.04;64.97
75938;BME280;64615;32.062;34.834;2023-07-24T03:34:54;100052.97;;;28.03;64.92
75938;BME280;64615;32.062;34.834;2023-07-24T03:37:20;100049.28;;;28.08;64.87
75938;BME280;64615;32.062;34.834;2023-07-24T03:39:45;100051.41;;;28.11;65.06
75938;BME280;64615;32.062;34.834;2023-07-24T03:42:11;100054.38;;;28.14;64.88
75938;BME280;64615;32.062;34.834;2023-07-24T03:44:40;100059.34;;;28.12;64.93
75938;BME280;64615;32.062;34.834;2023-07-24T03:47:06;100054.94;;;28.11;65.11
75938;BME280;64615;32.062;34.834;2023-07-24T03:49:33;100061.06;;;28.08;65.21
75938;BME280;64615;32.062;34.834;2023-07-24T03:51:59;100062.88;;;28.13;65.15
75938;BME280;64615;32.062;34.834;2023-07-24T03:54:24;100060.75;;;28.10;64.91
75938;BME280;64615;32.062;34.834;2023-07-24T03:56:50;100062.16;;;28.07;65.02
75938;BME280;64615;32.062;34.834;2023-07-24T03:59:15;100064.41;;;28.05;65.13
75938;BME280;64615;32.062;34.834;2023-07-24T04:01:41;100062.81;;;28.04;64.88
75938;BME280;64615;32.062;34.834;2023-07-24T04:04:07;100069.38;;;28.03;65.46
75938;BME280;64615;32.062;34.834;2023-07-24T04:06:32;100069.38;;;28.03;65.40
75938;BME280;64615;32.062;34.834;2023-07-24T04:08:58;100066.53;;;28.08;65.27
75938;BME280;64615;32.062;34.834;2023-07-24T04:11:24;100065.88;;;28.11;65.22
75938;BME280;64615;32.062;34.834;2023-07-24T04:13:49;100075.16;;;28.15;65.04
75938;BME280;64615;32.062;34.834;2023-07-24T04:16:15;100063.56;;;28.18;64.93
75938;BME280;64615;32.062;34.834;2023-07-24T04:18:40;100070.38;;;28.21;65.09
75938;BME280;64615;32.062;34.834;2023-07-24T04:21:06;100067.41;;;28.17;65.22
75938;BME280;64615;32.062;34.834;2023-07-24T04:23:32;100068.53;;;28.16;64.95
75938;BME280;64615;32.062;34.834;2023-07-24T04:25:57;100066.13;;;28.15;65.21
75938;BME280;64615;32.062;34.834;2023-07-24T04:28:23;100067.94;;;28.19;65.09
75938;BME280;64615;32.062;34.834;2023-07-24T04:30:49;100064.69;;;28.17;65.10
75938;BME280;64615;32.062;34.834;2023-07-24T04:33:14;100063.69;;;28.13;64.99
75938;BME280;64615;32.062;34.834;2023-07-24T04:35:40;100069.97;;;28.14;64.54
75938;BME280;64615;32.062;34.834;2023-07-24T04:38:06;100062.06;;;28.12;64.44
75938;BME280;64615;32.062;34.834;2023-07-24T04:40:32;100060.16;;;28.13;64.25
75938;BME280;64615;32.062;34.834;2023-07-24T04:42:58;100063.69;;;28.13;64.16
75938;BME280;64615;32.062;34.834;2023-07-24T04:45:24;100060.16;;;28.13;64.17
75938;BME280;64615;32.062;34.834;2023-07-24T04:47:49;100061.47;;;28.15;64.24
75938;BME280;64615;32.062;34.834;2023-07-24T04:50:15;100058.41;;;28.17;64.47
75938;BME280;64615;32.062;34.834;2023-07-24T04:52:40;100058.09;;;28.18;64.22
75938;BME280;64615;32.062;34.834;2023-07-24T04:55:06;100053.44;;;28.19;64.24
75938;BME280;64615;32.062;34.834;2023-07-24T04:57:32;100056.69;;;28.21;64.43
75938;BME280;64615;32.062;34.834;2023-07-24T04:59:57;100064.56;;;28.22;64.41
75938;BME280;64615;32.062;34.834;2023-07-24T05:02:23;100058.78;;;28.24;64.34
75938;BME280;64615;32.062;34.834;2023-07-24T05:04:49;100065.06;;;28.25;64.32
75938;BME280;64615;32.062;34.834;2023-07-24T05:07:14;100063.63;;;28.27;64.22
75938;BME280;64615;32.062;34.834;2023-07-24T05:09:40;100063.81;;;28.31;64.67
75938;BME280;64615;32.062;34.834;2023-07-24T05:12:06;100055.91;;;28.29;64.35
75938;BME280;64615;32.062;34.834;2023-07-24T05:14:32;100051.84;;;28.27;64.41
75938;BME280;64615;32.062;34.834;2023-07-24T05:16:57;100052.66;;;28.27;64.37
75938;BME280;64615;32.062;34.834;2023-07-24T05:19:23;100058.94;;;28.28;64.29
75938;BME280;64615;32.062;34.834;2023-07-24T05:21:48;100059.47;;;28.30;64.43
75938;BME280;64615;32.062;34.834;2023-07-24T05:24:14;100052.22;;;28.34;64.38
75938;BME280;64615;32.062;34.834;2023-07-24T05:26:40;100058.50;;;28.34;64.32
75938;BME280;64615;32.062;34.834;2023-07-24T05:29:05;100046.16;;;28.37;64.16
75938;BME280;64615;32.062;34.834;2023-07-24T05:31:31;100046.63;;;28.39;64.34
75938;BME280;64615;32.062;34.834;2023-07-24T05:33:56;100054.03;;;28.38;64.35
75938;BME280;64615;32.062;34.834;2023-07-24T05:36:22;100050.97;;;28.40;64.00
75938;BME280;64615;32.062;34.834;2023-07-24T05:38:47;100049.53;;;28.42;64.16
75938;BME280;64615;32.062;34.834;2023-07-24T05:41:13;100046.50;;;28.44;64.02
75938;BME280;64615;32.062;34.834;2023-07-24T05:43:39;100045.88;;;28.47;64.09
75938;BME280;64615;32.062;34.834;2023-07-24T05:46:04;100038.13;;;28.49;64.12
75938;BME280;64615;32.062;34.834;2023-07-24T05:48:30;100047.34;;;28.53;64.23
75938;BME280;64615;32.062;34.834;2023-07-24T05:50:55;100038.81;;;28.54;64.26
75938;BME280;64615;32.062;34.834;2023-07-24T05:53:21;100039.94;;;28.53;63.87
75938;BME280;64615;32.062;34.834;2023-07-24T05:55:47;100031.41;;;28.55;63.98
75938;BME280;64615;32.062;34.834;2023-07-24T05:58:12;100035.78;;;28.56;63.75
75938;BME280;64615;32.062;34.834;2023-07-24T06:00:38;100028.38;;;28.56;63.74
75938;BME280;64615;32.062;34.834;2023-07-24T06:03:04;100028.38;;;28.56;63.69
75938;BME280;64615;32.062;34.834;2023-07-24T06:05:30;100015.16;;;28.58;63.83
75938;BME280;64615;32.062;34.834;2023-07-24T06:07:55;100015.97;;;28.59;63.68
75938;BME280;64615;32.062;34.834;2023-07-24T06:10:21;100021.44;;;28.59;63.98
75938;BME280;64615;32.062;34.834;2023-07-24T06:12:47;100017.06;;;28.58;63.63
75938;BME280;64615;32.062;34.834;2023-07-24T06:15:13;100020.31;;;28.60;63.71
75938;BME280;64615;32.062;34.834;2023-07-24T06:17:38;100014.53;;;28.61;63.69
75938;BME280;64615;32.062;34.834;2023-07-24T06:20:05;100016.94;;;28.63;63.35
75938;BME280;64615;32.062;34.834;2023-07-24T06:22:31;100014.19;;;28.63;63.63
75938;BME280;64615;32.062;34.834;2023-07-24T06:24:56;100015.22;;;28.67;63.80
75938;BME280;64615;32.062;34.834;2023-07-24T06:27:22;100011.97;;;28.65;63.66
75938;BME280;64615;32.062;34.834;2023-07-24T06:29:47;100014.69;;;28.65;63.65
75938;BME280;64615;32.062;34.834;2023-07-24T06:32:13;100006.47;;;28.65;63.51
75938;BME280;64615;32.062;34.834;2023-07-24T06:34:39;100005.97;;;28.63;63.53
75938;BME280;64615;32.062;34.834;2023-07-24T06:37:04;100005.69;;;28.64;63.79
75938;BME280;64615;32.062;34.834;2023-07-24T06:39:30;99999.38;;;28.64;63.65
75938;BME280;64615;32.062;34.834;2023-07-24T06:41:56;99992.47;;;28.67;63.36
75938;BME280;64615;32.062;34.834;2023-07-24T06:44:22;99995.53;;;28.65;63.53
75938;BME280;64615;32.062;34.834;2023-07-24T06:46:47;99991.16;;;28.64;63.67
75938;BME280;64615;32.062;34.834;2023-07-24T06:49:13;99983.75;;;28.64;63.70
75938;BME280;64615;32.062;34.834;2023-07-24T06:51:39;99986.50;;;28.64;63.53
75938;BME280;64615;32.062;34.834;2023-07-24T06:54:05;99997.47;;;28.64;63.45
75938;BME280;64615;32.062;34.834;2023-07-24T06:56:31;99985.69;;;28.64;63.43
75938;BME280;64615;32.062;34.834;2023-07-24T06:58:57;99979.09;;;28.65;63.35
75938;BME280;64615;32.062;34.834;2023-07-24T07:01:22;99980.72;;;28.66;63.33
75938;BME280;64615;32.062;34.834;2023-07-24T07:03:48;99977.66;;;28.68;63.50
75938;BME280;64615;32.062;34.834;2023-07-24T07:06:14;99984.28;;;28.67;63.22
75938;BME280;64615;32.062;34.834;2023-07-24T07:08:39;99969.25;;;28.64;63.39
75938;BME280;64615;32.062;34.834;2023-07-24T07:11:05;99970.88;;;28.65;63.58
75938;BME280;64615;32.062;34.834;2023-07-24T07:13:30;99970.06;;;28.64;63.63
75938;BME280;64615;32.062;34.834;2023-07-24T07:15:56;99964.59;;;28.64;63.32
75938;BME280;64615;32.062;34.834;2023-07-24T07:18:22;99962.66;;;28.65;63.33
75938;BME280;64615;32.062;34.834;2023-07-24T07:20:48;99963.16;;;28.67;63.41
75938;BME280;64615;32.062;34.834;2023-07-24T07:23:14;99963.16;;;28.67;63.35
75938;BME280;64615;32.062;34.834;2023-07-24T07:25:41;99956.88;;;28.67;63.25
75938;BME280;64615;32.062;34.834;2023-07-24T07:28:09;99952.53;;;28.65;63.51
75938;BME280;64615;32.062;34.834;2023-07-24T07:30:35;99963.47;;;28.65;63.29
75938;BME280;64615;32.062;34.834;2023-07-24T07:33:00;99961.03;;;28.64;63.28
75938;BME280;64615;32.062;34.834;2023-07-24T07:35:26;99967.34;;;28.64;63.40
75938;BME280;64615;32.062;34.834;2023-07-24T07:37:52;99965.41;;;28.65;63.75
75938;BME280;64615;32.062;34.834;2023-07-24T07:40:18;99958.81;;;28.66;63.50
75938;BME280;64615;32.062;34.834;2023-07-24T07:42:43;99955.25;;;28.65;63.45
75938;BME280;64615;32.062;34.834;2023-07-24T07:45:10;99959.94;;;28.65;63.18
75938;BME280;64615;32.062;34.834;2023-07-24T07:47:36;99948.97;;;28.65;63.40
75938;BME280;64615;32.062;34.834;2023-07-24T07:50:02;99957.19;;;28.65;63.33
75938;BME280;64615;32.062;34.834;2023-07-24T07:52:28;99958.31;;;28.64;63.40
75938;BME280;64615;32.062;34.834;2023-07-24T07:54:54;99948.16;;;28.64;63.28
75938;BME280;64615;32.062;34.834;2023-07-24T07:57:19;99950.91;;;28.64;63.02
75938;BME280;64615;32.062;34.834;2023-07-24T07:59:45;99940.75;;;28.65;62.96
75938;BME280;64615;32.062;34.834;2023-07-24T08:02:11;99947.03;;;28.65;63.23
75938;BME280;64615;32.062;34.834;2023-07-24T08:04:36;99947.34;;;28.64;63.27
75938;BME280;64615;32.062;34.834;2023-07-24T08:07:02;99939.94;;;28.64;63.17
75938;BME280;64615;32.062;34.834;2023-07-24T08:09:28;99936.41;;;28.64;63.28
75938;BME280;64615;32.062;34.834;2023-07-24T08:11:54;99936.41;;;28.64;63.28
75938;BME280;64615;32.062;34.834;2023-07-24T08:14:19;99935.28;;;28.65;63.27
75938;BME280;64615;32.062;34.834;2023-07-24T08:16:48;99925.44;;;28.64;62.98
75938;BME280;64615;32.062;34.834;2023-07-24T08:19:14;99929.50;;;28.67;63.05
75938;BME280;64615;32.062;34.834;2023-07-24T08:21:40;99932.22;;;28.67;63.15
75938;BME280;64615;32.062;34.834;2023-07-24T08:24:06;99931.91;;;28.68;62.91
75938;BME280;64615;32.062;34.834;2023-07-24T08:26:31;99925.28;;;28.69;63.01
75938;BME280;64615;32.062;34.834;2023-07-24T08:28:57;99926.44;;;28.68;62.92
75938;BME280;64615;32.062;34.834;2023-07-24T08:31:23;99925.28;;;28.69;62.83
75938;BME280;64615;32.062;34.834;2023-07-24T08:33:49;99926.09;;;28.70;63.08
75938;BME280;64615;32.062;34.834;2023-07-24T08:36:14;99925.28;;;28.69;62.76
75938;BME280;64615;32.062;34.834;2023-07-24T08:38:41;99928.03;;;28.69;62.91
75938;BME280;64615;32.062;34.834;2023-07-24T08:41:12;99926.44;;;28.68;62.95
75938;BME280;64615;32.062;34.834;2023-07-24T08:43:40;99924.47;;;28.69;62.97
75938;BME280;64615;32.062;34.834;2023-07-24T08:46:07;99928.84;;;28.70;63.17
75938;BME280;64615;32.062;34.834;2023-07-24T08:48:41;99928.03;;;28.69;62.66
75938;BME280;64615;32.062;34.834;2023-07-24T08:51:12;99919.81;;;28.69;63.14
75938;BME280;64615;32.062;34.834;2023-07-24T08:53:42;99924.47;;;28.69;63.19
75938;BME280;64615;32.062;34.834;2023-07-24T08:56:10;99923.69;;;28.68;62.84
75938;BME280;64615;32.062;34.834;2023-07-24T08:58:37;99914.34;;;28.69;63.09
75938;BME280;64615;32.062;34.834;2023-07-24T09:01:05;99922.25;;;28.71;62.75
75938;BME280;64615;32.062;34.834;2023-07-24T09:03:31;99915.97;;;28.70;62.94
75938;BME280;64615;32.062;34.834;2023-07-24T09:05:57;99916.28;;;28.69;62.96
75938;BME280;64615;32.062;34.834;2023-07-24T09:08:36;99917.06;;;28.69;62.80
75938;BME280;64615;32.062;34.834;2023-07-24T09:11:03;99906.13;;;28.69;62.95
75938;BME280;64615;32.062;34.834;2023-07-24T09:13:30;99910.47;;;28.70;62.71
75938;BME280;64615;32.062;34.834;2023-07-24T09:15:56;99908.84;;;28.69;62.71
75938;BME280;64615;32.062;34.834;2023-07-24T09:18:22;99911.00;;;28.72;62.82
75938;BME280;64615;32.062;34.834;2023-07-24T09:20:49;99903.06;;;28.71;62.92
75938;BME280;64615;32.062;34.834;2023-07-24T09:23:15;99900.06;;;28.72;62.75
75938;BME280;64615;32.062;34.834;2023-07-24T09:25:43;99903.06;;;28.71;62.89
75938;BME280;64615;32.062;34.834;2023-07-24T09:28:13;99899.22;;;28.72;63.18
75938;BME280;64615;32.062;34.834;2023-07-24T09:30:39;99898.72;;;28.70;63.25
75938;BME280;64615;32.062;34.834;2023-07-24T09:33:06;99907.75;;;28.70;63.21
75938;BME280;64615;32.062;34.834;2023-07-24T09:35:32;99905.31;;;28.69;62.73
75938;BME280;64615;32.062;34.834;2023-07-24T09:38:07;99894.34;;;28.69;62.72
75938;BME280;64615;32.062;34.834;2023-07-24T09:40:40;99893.56;;;28.68;62.92
75938;BME280;64615;32.062;34.834;2023-07-24T09:43:22;99892.78;;;28.68;63.03
75938;BME280;64615;32.062;34.834;2023-07-24T09:45:49;99883.75;;;28.67;63.18
75938;BME280;64615;32.062;34.834;2023-07-24T09:48:17;99888.41;;;28.67;63.19
75938;BME280;64615;32.062;34.834;2023-07-24T09:50:46;99882.63;;;28.68;63.37
75938;BME280;64615;32.062;34.834;2023-07-24T09:53:21;99881.00;;;28.67;63.16
75938;BME280;64615;32.062;34.834;2023-07-24T09:55:53;99879.06;;;28.68;63.55
75938;BME280;64615;32.062;34.834;2023-07-24T09:58:21;99876.34;;;28.68;63.23
75938;BME280;64615;32.062;34.834;2023-07-24T10:00:48;99873.91;;;28.66;63.50
75938;BME280;64615;32.062;34.834;2023-07-24T10:03:14;99874.72;;;28.67;63.52
75938;BME280;64615;32.062;34.834;2023-07-24T10:05:42;99864.88;;;28.65;63.22
75938;BME280;64615;32.062;34.834;2023-07-24T10:08:10;99868.44;;;28.66;63.46
75938;BME280;64615;32.062;34.834;2023-07-24T10:10:40;99866.50;;;28.67;63.61
75938;BME280;64615;32.062;34.834;2023-07-24T10:13:06;99865.69;;;28.66;63.46
75938;BME280;64615;32.062;34.834;2023-07-24T10:15:32;99869.53;;;28.65;63.27
75938;BME280;64615;32.062;34.834;2023-07-24T10:18:04;99862.13;;;28.65;63.48
75938;BME280;64615;32.062;34.834;2023-07-24T10:20:35;99867.63;;;28.65;62.99
75938;BME280;64615;32.062;34.834;2023-07-24T10:23:05;99872.28;;;28.65;63.59
75938;BME280;64615;32.062;34.834;2023-07-24T10:25:33;99864.88;;;28.65;63.48
75938;BME280;64615;32.062;34.834;2023-07-24T10:28:08;99859.72;;;28.64;63.65
75938;BME280;64615;32.062;34.834;2023-07-24T10:30:40;99859.72;;;28.64;63.16
75938;BME280;64615;32.062;34.834;2023-07-24T10:33:32;99864.06;;;28.65;63.44
75938;BME280;64615;32.062;34.834;2023-07-24T10:36:08;99861.34;;;28.65;63.32
75938;BME280;64615;32.062;34.834;2023-07-24T10:38:46;99852.31;;;28.64;63.20
75938;BME280;64615;32.062;34.834;2023-07-24T10:41:12;99864.06;;;28.65;63.64
75938;BME280;64615;32.062;34.834;2023-07-24T10:43:50;99853.13;;;28.65;63.51
75938;BME280;64615;32.062;34.834;2023-07-24T10:46:18;99851.50;;;28.64;63.64
75938;BME280;64615;32.062;34.834;2023-07-24T10:48:46;99853.44;;;28.63;63.52
75938;BME280;64615;32.062;34.834;2023-07-24T10:51:12;99852.63;;;28.63;63.55
75938;BME280;64615;32.062;34.834;2023-07-24T10:53:45;99859.25;;;28.62;63.68
75938;BME280;64615;32.062;34.834;2023-07-24T10:56:11;99851.84;;;28.62;63.51
75938;BME280;64615;32.062;34.834;2023-07-24T10:58:37;99854.56;;;28.62;63.40
75938;BME280;64615;32.062;34.834;2023-07-24T11:01:06;99852.63;;;28.63;63.59
75938;BME280;64615;32.062;34.834;2023-07-24T11:03:35;99852.63;;;28.63;63.30
75938;BME280;64615;32.062;34.834;2023-07-24T11:06:02;99833.44;;;28.63;63.69
75938;BME280;64615;32.062;34.834;2023-07-24T11:08:28;99846.66;;;28.61;63.61
75938;BME280;64615;32.062;34.834;2023-07-24T11:10:56;99831.34;;;28.60;63.51
75938;BME280;64615;32.062;34.834;2023-07-24T11:13:27;99836.84;;;28.60;63.48
75938;BME280;64615;32.062;34.834;2023-07-24T11:15:54;99842.00;;;28.61;63.56
75938;BME280;64615;32.062;34.834;2023-07-24T11:18:20;99837.66;;;28.60;63.48
75938;BME280;64615;32.062;34.834;2023-07-24T11:20:54;99836.84;;;28.60;63.70
75938;BME280;64615;32.062;34.834;2023-07-24T11:23:21;99834.91;;;28.60;63.76
75938;BME280;64615;32.062;34.834;2023-07-24T11:25:50;99834.41;;;28.58;63.54
75938;BME280;64615;32.062;34.834;2023-07-24T11:28:16;99829.75;;;28.59;63.81
75938;BME280;64615;32.062;34.834;2023-07-24T11:30:42;99827.81;;;28.59;63.52
75938;BME280;64615;32.062;34.834;2023-07-24T11:33:11;99822.66;;;28.58;63.78
75938;BME280;64615;32.062;34.834;2023-07-24T11:35:39;99828.13;;;28.58;63.92
75938;BME280;64615;32.062;34.834;2023-07-24T11:38:09;99827.34;;;28.57;63.87
75938;BME280;64615;32.062;34.834;2023-07-24T11:40:40;99823.44;;;28.58;63.65
75938;BME280;64615;32.062;34.834;2023-07-24T11:43:22;99816.38;;;28.57;63.81
75938;BME280;64615;32.062;34.834;2023-07-24T11:45:49;99825.38;;;28.58;63.75
75938;BME280;64615;32.062;34.834;2023-07-24T11:48:19;99820.25;;;28.56;63.52
75938;BME280;64615;32.062;34.834;2023-07-24T11:50:49;99820.72;;;28.58;63.51
75938;BME280;64615;32.062;34.834;2023-07-24T11:53:19;99829.75;;;28.59;63.70
75938;BME280;64615;32.062;34.834;2023-07-24T11:55:47;99818.31;;;28.57;63.71
75938;BME280;64615;32.062;34.834;2023-07-24T11:58:15;99824.09;;;28.55;63.31
75938;BME280;64615;32.062;34.834;2023-07-24T12:00:41;99830.41;;;28.56;63.36
75938;BME280;64615;32.062;34.834;2023-07-24T12:03:07;99824.91;;;28.56;63.50
75938;BME280;64615;32.062;34.834;2023-07-24T12:05:43;99818.94;;;28.54;63.75
75938;BME280;64615;32.062;34.834;2023-07-24T12:08:12;99814.28;;;28.54;63.96
75938;BME280;64615;32.062;34.834;2023-07-24T12:10:40;99809.28;;;28.56;63.36
75938;BME280;64615;32.062;34.834;2023-07-24T12:13:06;99811.69;;;28.58;63.63
75938;BME280;64615;32.062;34.834;2023-07-24T12:15:32;99812.34;;;28.55;63.67
75938;BME280;64615;32.062;34.834;2023-07-24T12:18:00;99817.00;;;28.54;63.56
75938;BME280;64615;32.062;34.834;2023-07-24T12:20:26;99809.09;;;28.53;63.78
75938;BME280;64615;32.062;34.834;2023-07-24T12:22:52;99804.94;;;28.55;63.76
75938;BME280;64615;32.062;34.834;2023-07-24T12:25:19;99805.91;;;28.59;63.44
75938;BME280;64615;32.062;34.834;2023-07-24T12:27:46;99804.13;;;28.55;63.57
75938;BME280;64615;32.062;34.834;2023-07-24T12:30:12;99805.25;;;28.54;63.53
75938;BME280;64615;32.062;34.834;2023-07-24T12:32:38;99802.50;;;28.54;63.34
75938;BME280;64615;32.062;34.834;2023-07-24T12:35:04;99797.84;;;28.54;63.67
75938;BME280;64615;32.062;34.834;2023-07-24T12:37:30;99801.41;;;28.55;63.68
75938;BME280;64615;32.062;34.834;2023-07-24T12:39:56;99798.97;;;28.53;63.57
75938;BME280;64615;32.062;34.834;2023-07-24T12:42:22;99804.13;;;28.55;63.42
75938;BME280;64615;32.062;34.834;2023-07-24T12:44:49;99792.06;;;28.56;63.22
75938;BME280;64615;32.062;34.834;2023-07-24T12:47:14;99790.13;;;28.56;63.72